createdAt,value
2023-03-23T16:02:30.900Z,3.60
2023-03-23T16:07:36.456Z,4.20
2023-03-23T16:12:41.829Z,3.80
2023-03-23T16:17:47.540Z,3.70
2023-03-23T16:22:53.849Z,3.30
2023-03-23T16:27:59.650Z,3.40
2023-03-23T16:33:05.725Z,3.40
2023-03-23T16:38:16.466Z,3.50
2023-03-23T16:43:22.235Z,2.70
2023-03-23T16:48:28.017Z,3.30
2023-03-23T16:53:33.693Z,2.90
2023-03-23T16:58:39.414Z,3.40
2023-03-23T17:03:45.680Z,3.90
2023-03-23T17:08:51.609Z,5.00
2023-03-23T17:13:57.303Z,4.30
2023-03-23T17:19:03.004Z,3.30
2023-03-23T17:24:09.610Z,3.70
2023-03-23T17:29:15.496Z,3.10
2023-03-23T17:34:21.252Z,3.80
2023-03-23T17:39:28.060Z,3.50
2023-03-23T17:44:33.763Z,3.70
2023-03-23T17:49:39.660Z,3.50
2023-03-23T17:54:45.566Z,3.80
2023-03-23T17:59:51.255Z,3.60
2023-03-23T18:04:59.799Z,4.20
2023-03-23T18:10:12.320Z,4.00
2023-03-23T18:15:18.076Z,4.60
2023-03-23T18:20:23.831Z,4.80
2023-03-23T18:25:29.685Z,6.20
2023-03-23T18:30:36.442Z,5.80
2023-03-23T18:35:43.857Z,5.70
2023-03-23T18:40:51.090Z,6.10
2023-03-23T18:46:00.118Z,5.60
2023-03-23T18:51:07.282Z,6.20
2023-03-23T18:56:16.128Z,6.30
2023-03-23T19:01:22.626Z,6.20
2023-03-23T19:06:30.015Z,6.90
2023-03-23T19:11:35.680Z,6.80
2023-03-23T19:16:41.397Z,9.20
2023-03-23T19:21:47.403Z,11.70
2023-03-23T19:26:53.121Z,8.80
2023-03-23T19:31:59.477Z,8.50
2023-03-23T19:37:10.191Z,7.30
2023-03-23T19:42:18.593Z,6.40
2023-03-23T19:47:24.415Z,6.70
2023-03-23T19:52:30.175Z,6.40
2023-03-23T19:57:37.339Z,6.70
2023-03-23T20:02:42.791Z,5.80
2023-03-23T20:07:51.628Z,5.60
2023-03-23T20:12:57.867Z,5.00
2023-03-23T20:18:04.804Z,6.30
2023-03-23T20:23:11.560Z,5.20
2023-03-23T20:28:17.069Z,4.10
2023-03-23T20:33:22.567Z,3.60
2023-03-23T20:38:30.560Z,3.30
2023-03-23T20:43:37.741Z,3.20
2023-03-23T20:48:43.973Z,2.40
2023-03-23T20:53:50.280Z,2.50
2023-03-23T20:58:56.243Z,2.40
2023-03-23T21:04:03.158Z,2.50
2023-03-23T21:09:10.187Z,2.60
2023-03-23T21:14:16.402Z,2.80
2023-03-23T21:19:22.294Z,3.20
2023-03-23T21:24:32.785Z,3.10
2023-03-23T21:29:38.706Z,3.00
2023-03-23T21:34:46.651Z,3.10
2023-03-23T21:39:52.707Z,3.30
2023-03-23T21:45:03.070Z,3.40
2023-03-23T21:50:12.479Z,3.60
2023-03-23T21:55:18.502Z,4.50
2023-03-23T22:00:24.316Z,5.80
2023-03-23T22:05:30.746Z,5.50
2023-03-23T22:10:39.792Z,4.60
2023-03-23T22:15:46.792Z,3.90
2023-03-23T22:20:53.287Z,4.30
2023-03-23T22:25:58.871Z,4.00
2023-03-23T22:31:06.409Z,4.20
2023-03-23T22:36:13.154Z,4.10
2023-03-23T22:41:21.691Z,5.10
2023-03-23T22:46:27.444Z,5.50
2023-03-23T22:51:33.646Z,6.00
2023-03-23T22:56:39.432Z,5.80
2023-03-23T23:01:45.294Z,6.60
2023-03-23T23:07:12.816Z,5.70
2023-03-23T23:12:20.159Z,6.50
2023-03-23T23:17:34.856Z,6.10
2023-03-23T23:22:43.118Z,6.20
2023-03-23T23:27:49.543Z,6.00
2023-03-23T23:32:56.868Z,6.10
2023-03-23T23:38:03.584Z,5.80
2023-03-23T23:43:10.486Z,5.90
2023-03-23T23:48:16.130Z,5.90
2023-03-23T23:53:22.702Z,4.90
2023-03-23T23:58:28.277Z,5.00
